Time;durP1;ratioP1;P1;durP2;ratioP2;P2;SDS_P1;SDS_P2;PMS_P1;PMS_P2;Temp;Humidity;BMP_temperature;BMP_pressure;BME280_temperature;BME280_humidity;BME280_pressure;Samples;Min_cycle;Max_cycle;Signal;HPM_P1;HPM_P2
2022/04/26 06:03:05;;;;;;;7.13;3.63;;;;;;;;;;10535895;27;20413;-86
2022/04/26 06:08:08;;;;;;;4.40;2.78;;;;;;;;;;10518961;28;20058;-85
2022/04/26 06:13:09;;;;;;;7.80;6.00;;;;;;;;;;10509456;28;20490;-86
2022/04/26 06:18:10;;;;;;;5.63;3.50;;;;;;;;;;10509848;28;20051;-86
2022/04/26 06:23:12;;;;;;;5.03;3.67;;;;;;;;;;10517873;28;20027;-84
2022/04/26 06:28:13;;;;;;;;;;;;;;;;;;10517535;28;20031;-84
2022/04/26 06:33:14;;;;;;;8.68;7.05;;;;;;;;;;10529868;28;19936;-83
2022/04/26 06:38:16;;;;;;;;;;;;;;;;;;10525453;28;20021;-83
2022/04/26 06:43:17;;;;;;;11.90;7.50;;;;;;;;;;10525204;28;19916;-84
2022/04/26 06:48:18;;;;;;;;;;;;;;;;;;10517024;28;20084;-83
2022/04/26 06:53:19;;;;;;;10.82;8.85;;;;;;;;;;10517378;28;19936;-85
2022/04/26 06:58:20;;;;;;;6.30;5.10;;;;;;;;;;10516591;28;20434;-83
2022/04/26 07:03:21;;;;;;;2.78;1.98;;;;;;;;;;10515780;28;20024;-83
2022/04/26 07:08:22;;;;;;;;;;;;;;;;;;10510037;28;20012;-83
2022/04/26 07:13:25;;;;;;;5.90;4.50;;;;;;;;;;10483963;28;19911;-82
2022/04/26 07:18:27;;;;;;;7.65;4.47;;;;;;;;;;10481251;28;20031;-83
2022/04/26 07:23:28;;;;;;;11.35;5.15;;;;;;;;;;10480107;28;20029;-83
2022/04/26 07:28:29;;;;;;;5.40;4.15;;;;;;;;;;10487788;28;20029;-81
2022/04/26 07:38:50;;;;;;;5.90;3.03;;;;;;;;;;10481188;28;20029;-80
2022/04/26 07:43:52;;;;;;;8.60;6.68;;;;;;;;;;10479997;28;20024;-83
2022/04/26 07:48:54;;;;;;;10.98;7.15;;;;;;;;;;10470382;28;20472;-82
2022/04/26 07:54:00;;;;;;;7.07;4.20;;;;;;;;;;10483034;28;20017;-80
2022/04/26 07:59:03;;;;;;;7.20;5.50;;;;;;;;;;10484156;28;20105;-81
2022/04/26 08:04:04;;;;;;;4.00;3.08;;;;;;;;;;10484318;28;20029;-80
2022/04/26 08:09:06;;;;;;;9.45;5.35;;;;;;;;;;10483012;28;20386;-80
2022/04/26 08:14:11;;;;;;;8.80;4.07;;;;;;;;;;10477668;28;20049;-84
2022/04/26 08:19:12;;;;;;;7.50;5.72;;;;;;;;;;10460336;28;20040;-81
2022/04/26 08:29:40;;;;;;;6.93;5.95;;;;;;;;;;10492729;28;20446;-85
2022/04/26 08:34:41;;;;;;;9.50;6.10;;;;;;;;;;10470265;28;20093;-85
2022/04/26 08:39:43;;;;;;;8.52;6.60;;;;;;;;;;10472838;28;20041;-85
2022/04/26 08:44:45;;;;;;;6.90;5.13;;;;;;;;;;10476452;28;20028;-85
2022/04/26 08:55:33;;;;;;;5.95;4.93;;;;;;;;;;10474806;28;20084;-85
2022/04/26 09:00:34;;;;;;;7.50;5.00;;;;;;;;;;10474567;28;20036;-84
2022/04/26 09:11:00;;;;;;;9.50;5.32;;;;;;;;;;10477843;28;20397;-81
2022/04/26 09:16:02;;;;;;;9.93;8.75;;;;;;;;;;10480198;28;20033;-84
2022/04/26 09:21:38;;;;;;;7.18;5.45;;;;;;;;;;10481426;28;20137;-82
2022/04/26 09:26:46;;;;;;;7.50;5.45;;;;;;;;;;10476978;28;20039;-81
2022/04/26 09:31:59;;;;;;;6.88;5.13;;;;;;;;;;10481303;28;20032;-82
2022/04/26 09:37:06;;;;;;;6.20;5.00;;;;;;;;;;10476162;28;20024;-82
2022/04/26 09:42:07;;;;;;;8.15;6.25;;;;;;;;;;10476286;28;20025;-85
2022/04/26 09:47:14;;;;;;;9.63;7.32;;;;;;;;;;10479721;28;20025;-82
2022/04/26 09:52:19;;;;;;;9.63;7.93;;;;;;;;;;10482471;28;20025;-83
2022/04/26 09:57:31;;;;;;;7.30;5.70;;;;;;;;;;10485287;28;20031;-83
2022/04/26 10:02:53;;;;;;;7.40;6.00;;;;;;;;;;10481809;28;20033;-85
2022/04/26 10:07:54;;;;;;;8.25;6.68;;;;;;;;;;10474572;28;20128;-83
2022/04/26 10:18:30;;;;;;;8.05;6.18;;;;;;;;;;10480623;28;20079;-85
2022/04/26 10:24:04;;;;;;;13.23;7.30;;;;;;;;;;10492016;28;20033;-82
2022/04/26 10:29:31;;;;;;;8.05;5.80;;;;;;;;;;10425009;28;20041;-81
2022/04/26 10:34:39;;;;;;;9.60;7.72;;;;;;;;;;10407214;28;20025;-81
2022/04/26 10:39:58;;;;;;;7.32;6.10;;;;;;;;;;10409983;28;20136;-80
2022/04/26 10:45:07;;;;;;;7.13;5.33;;;;;;;;;;10457974;28;20041;-82
2022/04/26 10:50:45;;;;;;;11.20;10.02;;;;;;;;;;10478806;28;20106;-82
2022/04/26 10:56:31;;;;;;;11.00;9.90;;;;;;;;;;10430326;28;20025;-83
2022/04/26 11:02:03;;;;;;;10.82;7.72;;;;;;;;;;10481842;28;20104;-83
2022/04/26 11:07:17;;;;;;;8.85;6.55;;;;;;;;;;10506551;28;20028;-83
2022/04/26 11:13:08;;;;;;;9.00;6.65;;;;;;;;;;10395054;28;20030;-84
2022/04/26 11:18:55;;;;;;;10.77;9.68;;;;;;;;;;10391078;28;20030;-84
2022/04/26 11:30:37;;;;;;;9.88;6.15;;;;;;;;;;10307737;28;20503;-82
2022/04/26 11:47:04;;;;;;;13.60;10.63;;;;;;;;;;10332572;28;20013;-81
2022/04/26 11:52:06;;;;;;;12.90;9.98;;;;;;;;;;10419273;28;20026;-80
2022/04/26 11:57:11;;;;;;;15.18;11.68;;;;;;;;;;10479976;28;20028;-82
2022/04/26 12:02:13;;;;;;;12.40;10.25;;;;;;;;;;10497302;28;20166;-80
2022/04/26 12:07:35;;;;;;;13.85;12.45;;;;;;;;;;10496792;28;20028;-80
2022/04/26 12:12:58;;;;;;;16.08;12.93;;;;;;;;;;10513757;28;20033;-80
2022/04/26 12:18:18;;;;;;;13.00;11.70;;;;;;;;;;10510542;28;20035;-79
2022/04/26 12:23:22;;;;;;;9.40;7.78;;;;;;;;;;10499375;28;20028;-80
2022/04/26 12:29:00;;;;;;;9.25;8.35;;;;;;;;;;10498155;28;20114;-79
2022/04/26 12:34:13;;;;;;;9.45;8.43;;;;;;;;;;10364999;28;20595;-80
2022/04/26 12:40:03;;;;;;;13.10;11.73;;;;;;;;;;10384548;28;20118;-80
2022/04/26 12:45:32;;;;;;;10.80;9.73;;;;;;;;;;10431175;28;20033;-80
2022/04/26 12:50:46;;;;;;;11.27;9.35;;;;;;;;;;10414839;28;20044;-80
2022/04/26 12:56:09;;;;;;;11.65;10.27;;;;;;;;;;10465763;28;20041;-81
2022/04/26 13:01:12;;;;;;;15.93;8.93;;;;;;;;;;10463250;28;20080;-83
2022/04/26 13:12:40;;;;;;;7.10;6.40;;;;;;;;;;10477721;28;20112;-82
2022/04/26 13:17:53;;;;;;;10.80;9.70;;;;;;;;;;10450511;28;20033;-81
2022/04/26 13:23:19;;;;;;;10.82;8.38;;;;;;;;;;10477883;28;20033;-80
2022/04/26 13:28:36;;;;;;;9.00;8.10;;;;;;;;;;10462538;28;20037;-80
2022/04/26 13:33:44;;;;;;;10.90;9.80;;;;;;;;;;10476493;28;20032;-82
2022/04/26 13:38:51;;;;;;;9.10;8.20;;;;;;;;;;10483567;28;20052;-83
2022/04/26 13:43:58;;;;;;;8.93;7.82;;;;;;;;;;10498074;28;20398;-82
2022/04/26 13:49:22;;;;;;;9.93;9.02;;;;;;;;;;10497998;28;20020;-81
2022/04/26 13:54:54;;;;;;;11.55;9.85;;;;;;;;;;10499570;28;20181;-82
2022/04/26 14:00:21;;;;;;;9.98;6.68;;;;;;;;;;10487732;28;20033;-82
2022/04/26 14:05:46;;;;;;;8.80;7.22;;;;;;;;;;10513043;28;20048;-82
2022/04/26 14:11:39;;;;;;;7.88;5.97;;;;;;;;;;10498046;28;20058;-85
2022/04/26 14:22:35;;;;;;;6.88;5.78;;;;;;;;;;10308187;28;20434;-83
2022/04/26 14:39:12;;;;;;;7.03;5.60;;;;;;;;;;10295268;28;20038;-82
2022/04/26 14:44:43;;;;;;;12.70;8.95;;;;;;;;;;10306463;28;20039;-81
2022/04/26 14:50:13;;;;;;;6.50;5.63;;;;;;;;;;10377670;28;20032;-82
2022/04/26 14:55:17;;;;;;;8.05;5.68;;;;;;;;;;10517816;28;20450;-82
2022/04/26 15:00:35;;;;;;;7.78;6.72;;;;;;;;;;10483244;28;20033;-82
2022/04/26 15:05:46;;;;;;;5.75;4.60;;;;;;;;;;10480659;28;20041;-81
2022/04/26 15:10:50;;;;;;;6.40;5.07;;;;;;;;;;10494769;28;20025;-80
2022/04/26 15:32:23;;;;;;;7.93;4.40;;;;;;;;;;10518533;28;20029;-79
2022/04/26 15:37:30;;;;;;;8.00;5.07;;;;;;;;;;10523389;28;20033;-80
2022/04/26 15:42:36;;;;;;;4.53;4.03;;;;;;;;;;10503243;28;20048;-80
2022/04/26 15:48:02;;;;;;;9.25;5.15;;;;;;;;;;10492017;28;20040;-81
2022/04/26 15:53:23;;;;;;;6.68;5.18;;;;;;;;;;10519764;28;20229;-82
2022/04/26 15:58:44;;;;;;;6.10;4.80;;;;;;;;;;10526731;28;20472;-82
2022/04/26 16:03:45;;;;;;;8.43;5.38;;;;;;;;;;10487219;28;20363;-81
2022/04/26 16:08:46;;;;;;;9.57;5.20;;;;;;;;;;10504864;28;20025;-82
2022/04/26 16:20:28;;;;;;;5.55;3.47;;;;;;;;;;10503521;28;20383;-82
2022/04/26 16:24:43;;;;;;;6.50;5.75;;;;;;;;;;10521006;28;20024;-85
2022/04/26 16:30:03;;;;;;;6.67;4.53;;;;;;;;;;10494408;28;20043;-88
2022/04/26 16:35:07;;;;;;;13.00;11.60;;;;;;;;;;10498141;28;20032;-85
2022/04/26 16:40:09;;;;;;;8.18;6.80;;;;;;;;;;10496702;28;20037;-85
2022/04/26 16:45:21;;;;;;;7.35;5.20;;;;;;;;;;10502906;28;20024;-85
